Time;durP1;ratioP1;P1;durP2;ratioP2;P2;SDS_P1;SDS_P2;PMS_P1;PMS_P2;Temp;Humidity;BMP_temperature;BMP_pressure;BME280_temperature;BME280_humidity;BME280_pressure;Samples;Min_cycle;Max_cycle;Signal;HPM_P1;HPM_P2
2022/06/13 00:02:04;;;;;;;;;;;;;;;;;;4984892;28;118470;-65
2022/06/13 00:04:31;;;;;;;;;;;;;;;;;;4988263;28;130303;-63
2022/06/13 00:06:57;;;;;;;;;;;;;;;;;;4986305;28;137136;-62
2022/06/13 00:09:23;;;;;;;;;;;;;;;;;;4984691;28;137537;-64
2022/06/13 00:11:50;;;;;;;;;;;;;;;;;;4984472;28;137710;-63
2022/06/13 00:14:16;;;;;;;;;;;;;;;;;;4976809;28;129151;-64
2022/06/13 00:16:42;;;;;;;;;;;;;;;;;;4987180;28;130478;-64
2022/06/13 00:19:08;;;;;;;;;;;;;;;;;;4981259;28;127897;-63
2022/06/13 00:21:35;;;;;;;;;;;;;;;;;;4983134;28;111040;-64
2022/06/13 00:24:01;;;;;;;;;;;;;;;;;;4980219;28;136478;-64
2022/06/13 00:26:28;;;;;;;;;;;;;;;;;;4984303;28;137727;-64
2022/06/13 00:28:54;;;;;;;;;;;;;;;;;;4981386;28;106435;-64
2022/06/13 00:31:21;;;;;;;;;;;;;;;;;;4984571;28;135733;-66
2022/06/13 00:33:47;;;;;;;;;;;;;;;;;;4985806;28;120084;-64
2022/06/13 00:36:13;;;;;;;;;;;;;;;;;;4984004;28;118453;-64
2022/06/13 00:38:40;;;;;;;;;;;;;;;;;;4984558;28;128493;-64
2022/06/13 00:41:06;;;;;;;;;;;;;;;;;;4984556;28;127711;-64
2022/06/13 00:43:32;;;;;;;;;;;;;;;;;;4985123;28;115876;-64
2022/06/13 00:45:59;;;;;;;;;;;;;;;;;;4984632;28;136293;-64
2022/06/13 00:48:25;;;;;;;;;;;;;;;;;;4982536;28;123116;-64
2022/06/13 00:50:51;;;;;;;;;;;;;;;;;;4989917;28;136440;-64
2022/06/13 00:53:17;;;;;;;;;;;;;;;;;;4985200;28;128629;-64
2022/06/13 00:55:44;;;;;;;;;;;;;;;;;;4982535;28;135168;-64
2022/06/13 00:58:10;;;;;;;;;;;;;;;;;;4983499;28;135783;-64
2022/06/13 01:00:36;;;;;;;;;;;;;;;;;;4982161;28;128122;-64
2022/06/13 01:03:03;;;;;;;;;;;;;;;;;;4982737;28;131095;-64
2022/06/13 01:05:29;;;;;;;;;;;;;;;;;;4995552;22;107893;-68
2022/06/13 01:07:55;;;;;;;;;;;;;;;;;;4959416;28;123114;-68
2022/06/13 01:13:06;;;;;;;;;;;;;;;;;;4962115;28;122981;-68
2022/06/13 01:15:33;;;;;;;;;;;;;;;;;;4965877;28;125412;-67
2022/06/13 01:17:59;;;;;;;;;;;;;;;;;;4968079;28;106410;-68
2022/06/13 01:20:26;;;;;;;;;;;;;;;;;;4965772;28;120896;-69
2022/06/13 01:22:52;;;;;;;;;;;;;;;;;;4962673;28;136294;-68
2022/06/13 01:25:18;;;;;;;;;;;;;;;;;;4966185;28;135050;-68
2022/06/13 01:27:44;;;;;;;;;;;;;;;;;;4966032;28;117452;-68
2022/06/13 01:30:11;;;;;;;;;;;;;;;;;;4966436;28;134296;-68
2022/06/13 01:32:37;;;;;;;;;;;;;;;;;;4964293;28;125248;-69
2022/06/13 01:35:03;;;;;;;;;;;;;;;;;;4968464;28;126627;-69
2022/06/13 01:37:30;;;;;;;;;;;;;;;;;;4963974;28;136556;-68
2022/06/13 01:39:56;;;;;;;;;;;;;;;;;;4966624;28;106259;-68
2022/06/13 01:42:22;;;;;;;;;;;;;;;;;;4966642;28;134861;-69
2022/06/13 01:44:49;;;;;;;;;;;;;;;;;;4965161;28;135863;-69
2022/06/13 01:47:15;;;;;;;;;;;;;;;;;;4966667;28;123412;-69
2022/06/13 01:49:42;;;;;;;;;;;;;;;;;;4966368;28;121042;-68
2022/06/13 01:52:09;;;;;;;;;;;;;;;;;;4965119;28;126876;-69
2022/06/13 01:54:35;;;;;;;;;;;;;;;;;;4981961;28;127519;-69
2022/06/13 01:57:01;;;;;;;;;;;;;;;;;;4970769;28;112178;-69
2022/06/13 01:59:28;;;;;;;;;;;;;;;;;;4955641;28;129427;-69
2022/06/13 02:01:54;;;;;;;;;;;;;;;;;;4965289;28;127025;-68
2022/06/13 02:04:20;;;;;;;;;;;;;;;;;;4967611;28;114333;-68
2022/06/13 02:06:47;;;;;;;;;;;;;;;;;;4965184;28;130373;-68
2022/06/13 02:09:13;;;;;;;;;;;;;;;;;;4965423;28;106760;-68
2022/06/13 02:11:39;;;;;;;;;;;;;;;;;;4960096;28;122720;-69
2022/06/13 02:14:05;;;;;;;;;;;;;;;;;;4966194;28;118293;-69
2022/06/13 02:16:32;;;;;;;;;;;;;;;;;;4968736;28;137627;-68
2022/06/13 02:18:58;;;;;;;;;;;;;;;;;;4954851;28;106231;-68
2022/06/13 02:21:24;;;;;;;;;;;;;;;;;;4962914;28;124809;-68
2022/06/13 02:23:51;;;;;;;;;;;;;;;;;;4964715;28;126731;-68
2022/06/13 02:26:17;;;;;;;;;;;;;;;;;;4965007;28;106893;-68
2022/06/13 02:28:43;;;;;;;;;;;;;;;;;;4965058;28;127957;-69
2022/06/13 02:31:10;;;;;;;;;;;;;;;;;;4966364;28;128169;-69
2022/06/13 02:33:36;;;;;;;;;;;;;;;;;;4963215;28;125850;-69
2022/06/13 02:36:03;;;;;;;;;;;;;;;;;;4962849;28;135985;-68
2022/06/13 02:38:30;;;;;;;;;;;;;;;;;;4965503;28;108140;-67
2022/06/13 02:40:56;;;;;;;;;;;;;;;;;;4966503;28;137093;-67
2022/06/13 02:43:22;;;;;;;;;;;;;;;;;;4963277;28;106397;-68
2022/06/13 02:45:49;;;;;;;;;;;;;;;;;;4960811;28;107015;-67
2022/06/13 02:48:15;;;;;;;;;;;;;;;;;;4963879;28;129521;-67
2022/06/13 02:50:41;;;;;;;;;;;;;;;;;;4962036;28;119104;-67
2022/06/13 02:53:08;;;;;;;;;;;;;;;;;;4965463;28;113002;-67
2022/06/13 02:55:35;;;;;;;;;;;;;;;;;;4979572;28;134803;-67
2022/06/13 02:58:01;;;;;;;;;;;;;;;;;;4965840;28;112534;-67
2022/06/13 03:00:27;;;;;;;;;;;;;;;;;;4967337;28;128811;-67
2022/06/13 03:02:55;;;;;;;;;;;;;;;;;;4964950;28;135101;-67
2022/06/13 03:05:21;;;;;;;;;;;;;;;;;;4965132;28;113494;-68
2022/06/13 03:07:47;;;;;;;;;;;;;;;;;;4966199;28;133239;-67
2022/06/13 03:10:14;;;;;;;;;;;;;;;;;;4964198;28;136452;-66
2022/06/13 03:12:40;;;;;;;;;;;;;;;;;;4964963;28;117636;-67
2022/06/13 03:15:06;;;;;;;;;;;;;;;;;;4966422;28;135075;-66
2022/06/13 03:17:33;;;;;;;;;;;;;;;;;;4960298;28;111521;-67
2022/06/13 03:19:59;;;;;;;;;;;;;;;;;;4965865;28;122649;-67
2022/06/13 03:22:25;;;;;;;;;;;;;;;;;;4968429;28;135380;-67
2022/06/13 03:24:52;;;;;;;;;;;;;;;;;;4960931;28;121859;-67
2022/06/13 03:27:18;;;;;;;;;;;;;;;;;;4960363;28;118666;-67
2022/06/13 03:29:45;;;;;;;;;;;;;;;;;;4964098;28;137489;-68
2022/06/13 03:32:11;;;;;;;;;;;;;;;;;;4964800;28;124143;-68
2022/06/13 03:34:37;;;;;;;;;;;;;;;;;;4965902;28;114432;-67
2022/06/13 03:37:03;;;;;;;;;;;;;;;;;;4965326;28;130656;-67
2022/06/13 03:39:30;;;;;;;;;;;;;;;;;;4967602;28;107740;-66
2022/06/13 03:41:56;;;;;;;;;;;;;;;;;;4965894;28;126197;-67
2022/06/13 03:44:22;;;;;;;;;;;;;;;;;;4967170;28;125741;-67
2022/06/13 03:46:49;;;;;;;;;;;;;;;;;;4964434;28;129235;-67
2022/06/13 03:49:15;;;;;;;;;;;;;;;;;;4963496;28;137486;-67
2022/06/13 03:51:41;;;;;;;;;;;;;;;;;;4960295;28;109856;-68
2022/06/13 03:54:08;;;;;;;;;;;;;;;;;;4961356;28;125098;-68
2022/06/13 03:56:38;;;;;;;;;;;;;;;;;;4963414;28;134359;-68
2022/06/13 03:59:05;;;;;;;;;;;;;;;;;;4964083;28;126376;-67
2022/06/13 04:01:31;;;;;;;;;;;;;;;;;;4966446;28;136517;-67
2022/06/13 04:04:00;;;;;;;;;;;;;;;;;;4964101;28;116590;-68
2022/06/13 04:06:26;;;;;;;;;;;;;;;;;;4968292;28;122637;-68
2022/06/13 04:08:53;;;;;;;;;;;;;;;;;;4976781;28;120260;-68
2022/06/13 04:11:19;;;;;;;;;;;;;;;;;;4980178;28;130217;-68
2022/06/13 04:13:46;;;;;;;;;;;;;;;;;;4958359;28;130319;-68
2022/06/13 04:16:12;;;;;;;;;;;;;;;;;;4967867;28;123498;-68
2022/06/13 04:18:39;;;;;;;;;;;;;;;;;;4967034;28;106038;-68
2022/06/13 04:21:06;;;;;;;;;;;;;;;;;;4961933;28;132003;-68
2022/06/13 04:23:32;;;;;;;;;;;;;;;;;;4983317;28;134600;-68
2022/06/13 04:25:59;;;;;;;;;;;;;;;;;;4972442;28;106104;-68
2022/06/13 04:28:25;;;;;;;;;;;;;;;;;;4965827;28;107607;-68
2022/06/13 04:30:51;;;;;;;;;;;;;;;;;;4968387;28;127801;-68
2022/06/13 04:33:18;;;;;;;;;;;;;;;;;;4968677;28;109711;-68
2022/06/13 04:35:45;;;;;;;;;;;;;;;;;;4964768;28;128970;-68
2022/06/13 04:38:12;;;;;;;;;;;;;;;;;;4968513;28;116111;-68
2022/06/13 04:40:38;;;;;;;;;;;;;;;;;;4968777;28;114072;-68
2022/06/13 04:43:04;;;;;;;;;;;;;;;;;;4966372;28;121823;-69
2022/06/13 04:45:31;;;;;;;;;;;;;;;;;;4968386;28;120749;-67
2022/06/13 04:47:57;;;;;;;;;;;;;;;;;;4973078;28;107166;-68
2022/06/13 04:50:23;;;;;;;;;;;;;;;;;;4968392;28;106138;-68
2022/06/13 04:52:50;;;;;;;;;;;;;;;;;;4979502;28;119091;-67
2022/06/13 04:55:16;;;;;;;;;;;;;;;;;;4967358;28;132291;-67
2022/06/13 04:57:42;;;;;;;;;;;;;;;;;;4980528;28;125598;-68
2022/06/13 05:00:09;;;;;;;;;;;;;;;;;;4965641;28;124601;-67
2022/06/13 05:02:35;;;;;;;;;;;;;;;;;;4966217;28;126679;-68
2022/06/13 05:05:01;;;;;;;;;;;;;;;;;;4962278;28;118864;-67
2022/06/13 05:07:28;;;;;;;;;;;;;;;;;;4967352;28;117547;-68
2022/06/13 05:09:54;;;;;;;;;;;;;;;;;;4967805;28;136728;-67
2022/06/13 05:12:20;;;;;;;;;;;;;;;;;;4968834;28;107212;-67
2022/06/13 05:14:47;;;;;;;;;;;;;;;;;;4961922;28;107403;-68
2022/06/13 05:17:13;;;;;;;;;;;;;;;;;;4967060;28;106220;-68
2022/06/13 05:19:39;;;;;;;;;;;;;;;;;;4957608;28;140336;-68
2022/06/13 05:22:06;;;;;;;;;;;;;;;;;;4966171;28;121049;-68
2022/06/13 05:24:32;;;;;;;;;;;;;;;;;;4966493;28;106491;-67
2022/06/13 05:27:06;;;;;;;;;;;;;;;;;;4965961;28;127688;-67
2022/06/13 05:29:32;;;;;;;;;;;;;;;;;;4966174;28;135849;-67
2022/06/13 05:31:59;;;;;;;;;;;;;;;;;;4970820;28;117740;-67
2022/06/13 05:34:25;;;;;;;;;;;;;;;;;;4965736;28;108538;-68
2022/06/13 05:36:52;;;;;;;;;;;;;;;;;;4967097;28;133105;-67
2022/06/13 05:39:18;;;;;;;;;;;;;;;;;;4966326;28;123596;-67
2022/06/13 05:41:44;;;;;;;;;;;;;;;;;;4964623;28;120352;-68
2022/06/13 05:44:11;;;;;;;;;;;;;;;;;;4964247;28;127390;-68
2022/06/13 05:46:37;;;;;;;;;;;;;;;;;;4966760;28;127910;-68
2022/06/13 05:49:03;;;;;;;;;;;;;;;;;;4967214;28;137972;-67
2022/06/13 05:51:30;;;;;;;;;;;;;;;;;;4967159;28;115787;-68
2022/06/13 05:53:57;;;;;;;;;;;;;;;;;;4970628;28;128637;-68
2022/06/13 05:56:25;;;;;;;;;;;;;;;;;;4963256;28;107311;-68
2022/06/13 05:58:51;;;;;;;;;;;;;;;;;;4966481;28;115510;-68
2022/06/13 06:01:18;;;;;;;;;;;;;;;;;;4967764;28;106259;-68
2022/06/13 06:03:45;;;;;;;;;;;;;;;;;;4948837;28;109322;-68
2022/06/13 06:06:11;;;;;;;;;;;;;;;;;;4979701;28;114917;-67
2022/06/13 06:08:37;;;;;;;;;;;;;;;;;;4966594;28;136339;-67
2022/06/13 06:11:04;;;;;;;;;;;;;;;;;;4962659;28;129089;-68
2022/06/13 06:13:30;;;;;;;;;;;;;;;;;;4960178;28;135433;-68
2022/06/13 06:15:57;;;;;;;;;;;;;;;;;;4969047;28;106518;-67
2022/06/13 06:18:23;;;;;;;;;;;;;;;;;;4966169;28;128704;-68
2022/06/13 06:20:49;;;;;;;;;;;;;;;;;;4964538;28;124215;-68
2022/06/13 06:23:16;;;;;;;;;;;;;;;;;;4965984;28;122707;-67
2022/06/13 06:25:42;;;;;;;;;;;;;;;;;;4964928;28;109652;-68
2022/06/13 06:28:08;;;;;;;;;;;;;;;;;;4963152;28;127782;-68
2022/06/13 06:30:35;;;;;;;;;;;;;;;;;;4966937;28;122495;-68
2022/06/13 06:33:01;;;;;;;;;;;;;;;;;;4954450;28;131943;-67
2022/06/13 06:35:27;;;;;;;;;;;;;;;;;;4963657;28;135323;-68
2022/06/13 06:37:54;;;;;;;;;;;;;;;;;;4965686;28;125711;-67
2022/06/13 06:40:20;;;;;;;;;;;;;;;;;;4963305;28;131183;-68
2022/06/13 06:42:46;;;;;;;;;;;;;;;;;;4963767;28;122799;-68
2022/06/13 06:45:21;;;;;;;;;;;;;;;;;;4963980;28;108513;-69
2022/06/13 06:47:47;;;;;;;;;;;;;;;;;;4964271;28;135848;-68
2022/06/13 06:50:13;;;;;;;;;;;;;;;;;;4966858;28;106412;-68
2022/06/13 06:52:40;;;;;;;;;;;;;;;;;;4957339;28;126448;-65
2022/06/13 07:00:36;;;;;;;;;;;;;;;;;;4958407;28;131714;-67
2022/06/13 07:03:03;;;;;;;;;;;;;;;;;;4958938;28;110904;-70
2022/06/13 07:05:30;;;;;;;;;;;;;;;;;;4965779;28;122832;-66
2022/06/13 07:07:56;;;;;;;;;;;;;;;;;;4959204;28;126485;-66
2022/06/13 07:10:22;;;;;;;;;;;;;;;;;;4957248;28;119647;-66
2022/06/13 07:12:49;;;;;;;;;;;;;;;;;;4969499;28;123510;-66
2022/06/13 07:15:15;;;;;;;;;;;;;;;;;;4962743;28;135874;-67
2022/06/13 07:17:42;;;;;;;;;;;;;;;;;;4963379;28;127861;-67
2022/06/13 07:20:08;;;;;;;;;;;;;;;;;;4968243;28;118818;-67
2022/06/13 07:22:34;;;;;;;;;;;;;;;;;;4965911;28;130111;-67
2022/06/13 07:25:01;;;;;;;;;;;;;;;;;;4964563;28;114422;-67
2022/06/13 07:27:27;;;;;;;;;;;;;;;;;;4963917;28;116767;-67
2022/06/13 07:29:53;;;;;;;;;;;;;;;;;;4967021;28;118949;-67
2022/06/13 07:32:20;;;;;;;;;;;;;;;;;;4965959;28;122755;-68
2022/06/13 07:34:46;;;;;;;;;;;;;;;;;;4962714;28;107299;-69
2022/06/13 07:37:12;;;;;;;;;;;;;;;;;;4964512;28;106305;-69
2022/06/13 07:39:39;;;;;;;;;;;;;;;;;;4959813;28;127189;-69
2022/06/13 07:42:08;;;;;;;;;;;;;;;;;;4965442;28;135994;-69
2022/06/13 07:44:34;;;;;;;;;;;;;;;;;;4964268;28;133928;-69
2022/06/13 07:47:00;;;;;;;;;;;;;;;;;;4965301;28;112883;-69
2022/06/13 07:49:27;;;;;;;;;;;;;;;;;;4965643;28;107559;-69
2022/06/13 07:51:53;;;;;;;;;;;;;;;;;;4956788;28;131156;-68
2022/06/13 07:54:20;;;;;;;;;;;;;;;;;;4968765;28;126753;-68
2022/06/13 07:56:46;;;;;;;;;;;;;;;;;;4983916;28;107104;-68
2022/06/13 07:59:12;;;;;;;;;;;;;;;;;;4968754;28;119318;-69
2022/06/13 08:01:39;;;;;;;;;;;;;;;;;;4968117;28;107501;-68
2022/06/13 08:04:05;;;;;;;;;;;;;;;;;;4969702;28;115341;-68
2022/06/13 08:06:32;;;;;;;;;;;;;;;;;;4967834;28;117959;-70
2022/06/13 08:08:58;;;;;;;;;;;;;;;;;;4967167;28;119887;-68
2022/06/13 08:11:24;;;;;;;;;;;;;;;;;;4966280;28;107075;-68
2022/06/13 08:13:51;;;;;;;;;;;;;;;;;;4959771;28;112400;-67
2022/06/13 08:16:17;;;;;;;;;;;;;;;;;;4967502;28;107590;-67
2022/06/13 08:18:44;;;;;;;;;;;;;;;;;;4967993;28;108148;-66
2022/06/13 08:21:10;;;;;;;;;;;;;;;;;;4950397;28;133993;-67
2022/06/13 08:23:36;;;;;;;;;;;;;;;;;;4959128;28;106233;-69
2022/06/13 08:26:03;;;;;;;;;;;;;;;;;;4965422;28;127601;-66
2022/06/13 08:28:29;;;;;;;;;;;;;;;;;;4965309;28;106443;-69
2022/06/13 08:30:56;;;;;;;;;;;;;;;;;;4967349;28;123635;-66
2022/06/13 08:33:23;;;;;;;;;;;;;;;;;;4953805;28;107816;-68
2022/06/13 08:35:49;;;;;;;;;;;;;;;;;;4968113;28;114020;-66
2022/06/13 08:38:16;;;;;;;;;;;;;;;;;;4968232;28;106223;-67
2022/06/13 08:40:42;;;;;;;;;;;;;;;;;;4958256;28;106765;-67
2022/06/13 08:43:08;;;;;;;;;;;;;;;;;;4954534;28;127986;-67
2022/06/13 08:45:35;;;;;;;;;;;;;;;;;;4971106;28;134857;-68
2022/06/13 08:48:01;;;;;;;;;;;;;;;;;;4964944;28;119373;-67
2022/06/13 08:50:28;;;;;;;;;;;;;;;;;;4966773;28;136051;-67
2022/06/13 08:52:55;;;;;;;;;;;;;;;;;;4966859;28;116188;-67
2022/06/13 08:55:21;;;;;;;;;;;;;;;;;;4968512;28;106204;-69
2022/06/13 08:57:47;;;;;;;;;;;;;;;;;;4962010;28;126829;-68
2022/06/13 09:00:14;;;;;;;;;;;;;;;;;;4966357;28;124688;-68
2022/06/13 09:02:40;;;;;;;;;;;;;;;;;;4963133;28;122222;-67
2022/06/13 09:05:06;;;;;;;;;;;;;;;;;;4964437;28;115019;-68
2022/06/13 09:07:33;;;;;;;;;;;;;;;;;;4971970;28;109042;-67
2022/06/13 09:09:59;;;;;;;;;;;;;;;;;;4968056;28;135394;-68
2022/06/13 09:12:26;;;;;;;;;;;;;;;;;;4966238;28;107077;-67
2022/06/13 09:14:52;;;;;;;;;;;;;;;;;;4964577;28;126389;-68
2022/06/13 09:17:18;;;;;;;;;;;;;;;;;;4965017;28;122924;-67
2022/06/13 09:19:45;;;;;;;;;;;;;;;;;;4966073;28;126949;-68
2022/06/13 09:22:11;;;;;;;;;;;;;;;;;;4960236;28;116611;-67
2022/06/13 09:24:38;;;;;;;;;;;;;;;;;;4961922;28;122684;-68
2022/06/13 09:27:04;;;;;;;;;;;;;;;;;;4964265;28;121512;-68
2022/06/13 09:29:30;;;;;;;;;;;;;;;;;;4967499;28;116687;-68
2022/06/13 09:31:57;;;;;;;;;;;;;;;;;;4965240;28;136852;-67
2022/06/13 09:34:23;;;;;;;;;;;;;;;;;;4960408;28;116055;-68
2022/06/13 09:36:49;;;;;;;;;;;;;;;;;;4958911;28;119821;-68
2022/06/13 09:39:18;;;;;;;;;;;;;;;;;;4964017;28;115952;-68
2022/06/13 09:41:44;;;;;;;;;;;;;;;;;;4961966;28;106323;-68
2022/06/13 09:44:11;;;;;;;;;;;;;;;;;;4956131;28;134487;-68
2022/06/13 09:46:37;;;;;;;;;;;;;;;;;;4961976;28;129467;-68
2022/06/13 09:49:04;;;;;;;;;;;;;;;;;;4959643;28;108180;-68
2022/06/13 09:51:30;;;;;;;;;;;;;;;;;;4964044;28;114540;-69
2022/06/13 09:53:56;;;;;;;;;;;;;;;;;;4961548;28;128101;-67
2022/06/13 09:56:23;;;;;;;;;;;;;;;;;;4954786;28;134642;-68
2022/06/13 09:58:49;;;;;;;;;;;;;;;;;;4958236;28;137431;-68
2022/06/13 10:01:15;;;;;;;;;;;;;;;;;;4957599;28;118826;-67
2022/06/13 10:03:42;;;;;;;;;;;;;;;;;;4960506;28;133326;-68
2022/06/13 10:06:08;;;;;;;;;;;;;;;;;;4959321;28;107658;-68
2022/06/13 10:08:34;;;;;;;;;;;;;;;;;;4955311;28;106838;-68
2022/06/13 10:11:16;;;;;;;;;;;;;;;;;;4960171;28;107690;-67
2022/06/13 10:13:42;;;;;;;;;;;;;;;;;;4960836;28;119479;-68
2022/06/13 10:16:09;;;;;;;;;;;;;;;;;;4963187;28;136659;-67
2022/06/13 10:18:35;;;;;;;;;;;;;;;;;;4957298;28;135705;-67
2022/06/13 10:21:02;;;;;;;;;;;;;;;;;;4959497;28;108485;-67
2022/06/13 10:23:28;;;;;;;;;;;;;;;;;;4959872;28;123985;-67
2022/06/13 10:25:54;;;;;;;;;;;;;;;;;;4962405;28;107231;-67
2022/06/13 10:28:21;;;;;;;;;;;;;;;;;;4961149;28;127911;-68
2022/06/13 10:30:48;;;;;;;;;;;;;;;;;;4964061;28;106839;-68
2022/06/13 10:33:14;;;;;;;;;;;;;;;;;;4967839;28;126689;-68
2022/06/13 10:35:40;;;;;;;;;;;;;;;;;;4966313;28;116002;-68
2022/06/13 10:38:07;;;;;;;;;;;;;;;;;;4964257;28;138280;-69
2022/06/13 10:40:33;;;;;;;;;;;;;;;;;;4959973;28;113092;-68
2022/06/13 10:42:59;;;;;;;;;;;;;;;;;;4964919;28;121354;-67
2022/06/13 10:45:26;;;;;;;;;;;;;;;;;;4964793;28;136658;-67
2022/06/13 10:47:52;;;;;;;;;;;;;;;;;;4957870;28;106137;-67
2022/06/13 10:50:18;;;;;;;;;;;;;;;;;;4965660;28;136654;-68
2022/06/13 10:52:45;;;;;;;;;;;;;;;;;;4959392;28;124703;-68
2022/06/13 10:55:11;;;;;;;;;;;;;;;;;;4969055;28;120215;-67
2022/06/13 10:57:38;;;;;;;;;;;;;;;;;;4962881;28;135290;-68
2022/06/13 11:00:04;;;;;;;;;;;;;;;;;;4965419;28;119720;-68
2022/06/13 11:02:31;;;;;;;;;;;;;;;;;;4965559;28;116365;-67
2022/06/13 11:04:57;;;;;;;;;;;;;;;;;;4962323;28;108865;-69
2022/06/13 11:07:24;;;;;;;;;;;;;;;;;;4965747;28;113257;-68
2022/06/13 11:09:50;;;;;;;;;;;;;;;;;;4961691;28;135398;-67
2022/06/13 11:12:17;;;;;;;;;;;;;;;;;;4962612;28;130173;-68
2022/06/13 11:22:58;;;;;;;;;;;;;;;;;;4958618;28;135968;-71
2022/06/13 11:25:25;;;;;;;;;;;;;;;;;;4967620;28;132780;-69
2022/06/13 11:27:51;;;;;;;;;;;;;;;;;;4968337;28;106251;-71
2022/06/13 11:30:17;;;;;;;;;;;;;;;;;;4961237;28;126453;-69
2022/06/13 11:32:44;;;;;;;;;;;;;;;;;;4967638;28;120214;-68
2022/06/13 11:35:11;;;;;;;;;;;;;;;;;;4966286;28;106976;-70
2022/06/13 11:37:37;;;;;;;;;;;;;;;;;;4969750;28;121035;-67
2022/06/13 11:40:04;;;;;;;;;;;;;;;;;;4969478;28;118439;-69
2022/06/13 11:42:30;;;;;;;;;;;;;;;;;;4964462;28;126165;-71
2022/06/13 11:45:01;;;;;;;;;;;;;;;;;;4966739;28;107814;-67
2022/06/13 11:47:28;;;;;;;;;;;;;;;;;;4963839;28;114312;-67
2022/06/13 11:49:55;;;;;;;;;;;;;;;;;;4965052;28;127252;-67
2022/06/13 11:55:06;;;;;;;;;;;;;;;;;;4958609;28;107850;-66
2022/06/13 11:57:32;;;;;;;;;;;;;;;;;;4968127;28;127006;-67
2022/06/13 11:59:59;;;;;;;;;;;;;;;;;;4964442;28;127227;-65
2022/06/13 12:02:25;;;;;;;;;;;;;;;;;;4969197;28;118101;-65
2022/06/13 12:04:51;;;;;;;;;;;;;;;;;;4963966;28;120214;-66
2022/06/13 12:07:18;;;;;;;;;;;;;;;;;;4967641;28;128530;-66
2022/06/13 12:09:45;;;;;;;;;;;;;;;;;;4963394;28;129666;-67
2022/06/13 12:12:11;;;;;;;;;;;;;;;;;;4967583;28;132471;-67
2022/06/13 12:14:41;;;;;;;;;;;;;;;;;;4966340;28;113657;-67
2022/06/13 12:17:08;;;;;;;;;;;;;;;;;;4959625;28;131273;-67
2022/06/13 12:19:34;;;;;;;;;;;;;;;;;;4967200;28;128840;-67
2022/06/13 12:22:01;;;;;;;;;;;;;;;;;;4967663;28;129051;-67
2022/06/13 12:24:27;;;;;;;;;;;;;;;;;;4966704;28;133843;-67
2022/06/13 12:26:53;;;;;;;;;;;;;;;;;;4966094;28;121659;-65
2022/06/13 12:29:20;;;;;;;;;;;;;;;;;;4969400;28;107953;-65
2022/06/13 12:31:46;;;;;;;;;;;;;;;;;;4967649;28;112803;-65
2022/06/13 12:34:12;;;;;;;;;;;;;;;;;;4960123;28;129519;-66
2022/06/13 12:51:13;;;;;;;;;;;;;;;;;;4920043;27;106369;-67
2022/06/13 12:53:40;;;;;;;;;;;;;;;;;;4908204;27;134251;-68
2022/06/13 12:56:06;;;;;;;;;;;;;;;;;;4913003;27;117816;-68
2022/06/13 12:58:32;;;;;;;;;;;;;;;;;;4920568;27;106665;-68
2022/06/13 13:01:02;;;;;;;;;;;;;;;;;;4923448;27;131005;-68
2022/06/13 13:03:28;;;;;;;;;;;;;;;;;;4918394;28;115660;-68
2022/06/13 13:05:55;;;;;;;;;;;;;;;;;;4919225;27;128645;-69
2022/06/13 13:08:21;;;;;;;;;;;;;;;;;;4924165;27;130058;-68
2022/06/13 13:10:48;;;;;;;;;;;;;;;;;;4915403;28;117331;-67
2022/06/13 13:13:14;;;;;;;;;;;;;;;;;;4922621;27;135724;-67
2022/06/13 13:15:41;;;;;;;;;;;;;;;;;;4922964;27;106379;-67
2022/06/13 13:18:07;;;;;;;;;;;;;;;;;;4904222;27;137188;-67
2022/06/13 13:20:33;;;;;;;;;;;;;;;;;;4916901;27;135935;-67
2022/06/13 13:22:59;;;;;;;;;;;;;;;;;;4917382;28;116500;-65
2022/06/13 13:25:41;;;;;;;;;;;;;;;;;;4920168;27;137219;-64
2022/06/13 13:28:08;;;;;;;;;;;;;;;;;;4923717;28;133969;-65
2022/06/13 13:30:36;;;;;;;;;;;;;;;;;;4911437;28;108195;-65
2022/06/13 13:33:02;;;;;;;;;;;;;;;;;;4908120;28;133569;-65
2022/06/13 13:35:29;;;;;;;;;;;;;;;;;;4920282;27;114179;-63
2022/06/13 13:37:55;;;;;;;;;;;;;;;;;;4913884;28;136967;-63
2022/06/13 13:40:23;;;;;;;;;;;;;;;;;;4913745;27;134690;-65
2022/06/13 13:42:50;;;;;;;;;;;;;;;;;;4903710;27;106036;-66
2022/06/13 13:45:16;;;;;;;;;;;;;;;;;;4919632;28;131755;-67
2022/06/13 13:47:43;;;;;;;;;;;;;;;;;;4919316;27;130058;-66
2022/06/13 13:50:09;;;;;;;;;;;;;;;;;;4914010;27;111689;-66
2022/06/13 13:52:35;;;;;;;;;;;;;;;;;;4926896;27;129294;-68
2022/06/13 13:55:02;;;;;;;;;;;;;;;;;;4920223;27;108052;-68
2022/06/13 13:57:28;;;;;;;;;;;;;;;;;;4909426;27;112296;-68
2022/06/13 13:59:54;;;;;;;;;;;;;;;;;;4915388;27;137189;-68
2022/06/13 14:02:21;;;;;;;;;;;;;;;;;;4902077;27;116139;-67
2022/06/13 14:04:47;;;;;;;;;;;;;;;;;;4910013;27;126149;-67
2022/06/13 14:07:13;;;;;;;;;;;;;;;;;;4905350;27;136561;-67
2022/06/13 14:09:39;;;;;;;;;;;;;;;;;;4916814;27;113357;-67
2022/06/13 14:12:08;;;;;;;;;;;;;;;;;;4917775;28;135401;-67
2022/06/13 14:14:35;;;;;;;;;;;;;;;;;;4927628;28;124912;-67
2022/06/13 14:17:01;;;;;;;;;;;;;;;;;;4906756;28;116653;-67
2022/06/13 14:19:28;;;;;;;;;;;;;;;;;;4901185;28;128593;-67
2022/06/13 14:21:54;;;;;;;;;;;;;;;;;;4960237;27;107113;-67
2022/06/13 14:24:21;;;;;;;;;;;;;;;;;;4942715;27;108507;-68
2022/06/13 14:26:52;;;;;;;;;;;;;;;;;;4903551;28;121530;-67
2022/06/13 14:29:18;;;;;;;;;;;;;;;;;;4936992;28;109521;-67
2022/06/13 14:31:44;;;;;;;;;;;;;;;;;;4903624;28;135101;-69
2022/06/13 14:37:13;;;;;;;;;;;;;;;;;;4967318;28;107125;-68
2022/06/13 14:39:39;;;;;;;;;;;;;;;;;;4915411;28;135107;-68
2022/06/13 14:42:06;;;;;;;;;;;;;;;;;;4920245;28;106547;-69
2022/06/13 14:44:32;;;;;;;;;;;;;;;;;;4910245;28;107579;-69
2022/06/13 14:47:01;;;;;;;;;;;;;;;;;;4919612;28;135451;-69
2022/06/13 14:49:28;;;;;;;;;;;;;;;;;;4904238;28;116519;-69
2022/06/13 14:51:55;;;;;;;;;;;;;;;;;;4924895;27;119574;-68
2022/06/13 14:54:21;;;;;;;;;;;;;;;;;;4907498;28;132989;-69
2022/06/13 14:56:47;;;;;;;;;;;;;;;;;;4913920;28;106127;-68
2022/06/13 14:59:14;;;;;;;;;;;;;;;;;;4920203;28;126672;-68
2022/06/13 15:01:40;;;;;;;;;;;;;;;;;;4927235;28;106415;-68
2022/06/13 15:04:08;;;;;;;;;;;;;;;;;;4901707;28;117470;-68
2022/06/13 15:06:34;;;;;;;;;;;;;;;;;;4901675;28;135846;-70
2022/06/13 15:09:00;;;;;;;;;;;;;;;;;;4920700;28;106899;-68
2022/06/13 15:11:27;;;;;;;;;;;;;;;;;;4899003;28;135922;-67
2022/06/13 15:13:53;;;;;;;;;;;;;;;;;;4893325;28;125661;-68
2022/06/13 15:16:21;;;;;;;;;;;;;;;;;;4914813;28;107087;-68
2022/06/13 15:18:47;;;;;;;;;;;;;;;;;;4901965;28;124935;-68
2022/06/13 15:21:14;;;;;;;;;;;;;;;;;;4905312;28;114288;-68
2022/06/13 15:24:00;;;;;;;;;;;;;;;;;;4933029;28;107046;-68
2022/06/13 15:26:26;;;;;;;;;;;;;;;;;;4905590;27;107761;-68
2022/06/13 15:28:55;;;;;;;;;;;;;;;;;;4900843;28;107722;-67
2022/06/13 15:31:24;;;;;;;;;;;;;;;;;;4901472;27;108329;-66
2022/06/13 15:33:51;;;;;;;;;;;;;;;;;;4905812;27;106986;-69
2022/06/13 15:36:18;;;;;;;;;;;;;;;;;;4897625;27;107642;-68
2022/06/13 15:38:44;;;;;;;;;;;;;;;;;;4918096;27;137613;-67
2022/06/13 15:41:10;;;;;;;;;;;;;;;;;;4922707;27;124825;-67
2022/06/13 15:43:37;;;;;;;;;;;;;;;;;;4928504;27;106389;-70
2022/06/13 15:46:03;;;;;;;;;;;;;;;;;;4919919;28;106333;-68
2022/06/13 15:48:30;;;;;;;;;;;;;;;;;;4918580;27;108745;-70
2022/06/13 15:50:56;;;;;;;;;;;;;;;;;;4900327;27;114795;-69
2022/06/13 15:53:25;;;;;;;;;;;;;;;;;;4899693;27;121191;-67
2022/06/13 15:55:51;;;;;;;;;;;;;;;;;;4916001;27;118365;-68
2022/06/13 15:58:18;;;;;;;;;;;;;;;;;;4914664;28;123708;-67
2022/06/13 16:00:49;;;;;;;;;;;;;;;;;;4908863;27;110707;-67
2022/06/13 16:03:16;;;;;;;;;;;;;;;;;;4940415;27;106458;-69
2022/06/13 16:05:42;;;;;;;;;;;;;;;;;;4962899;27;120794;-68
2022/06/13 16:08:08;;;;;;;;;;;;;;;;;;4907365;27;106517;-68
2022/06/13 16:10:35;;;;;;;;;;;;;;;;;;4916410;28;133950;-68
2022/06/13 16:13:01;;;;;;;;;;;;;;;;;;4912402;28;138679;-66
2022/06/13 16:15:27;;;;;;;;;;;;;;;;;;4896491;27;107497;-67
2022/06/13 16:17:54;;;;;;;;;;;;;;;;;;4957834;28;129073;-69
2022/06/13 16:20:20;;;;;;;;;;;;;;;;;;4908173;27;129480;-68
2022/06/13 16:22:46;;;;;;;;;;;;;;;;;;4924814;28;106827;-68
2022/06/13 16:25:18;;;;;;;;;;;;;;;;;;4914871;27;130382;-68
2022/06/13 16:27:44;;;;;;;;;;;;;;;;;;4914746;27;130916;-68
2022/06/13 16:30:10;;;;;;;;;;;;;;;;;;4899027;28;124191;-68
2022/06/13 16:32:36;;;;;;;;;;;;;;;;;;4914108;27;134820;-67
2022/06/13 16:35:03;;;;;;;;;;;;;;;;;;4908003;27;106914;-68
2022/06/13 16:37:29;;;;;;;;;;;;;;;;;;4911596;28;133612;-68
2022/06/13 16:39:55;;;;;;;;;;;;;;;;;;4893588;27;122336;-69
2022/06/13 16:42:22;;;;;;;;;;;;;;;;;;4936979;27;106913;-69
2022/06/13 16:44:48;;;;;;;;;;;;;;;;;;4927048;27;129718;-69
2022/06/13 16:47:15;;;;;;;;;;;;;;;;;;4912989;28;107799;-69
2022/06/13 16:49:41;;;;;;;;;;;;;;;;;;4900859;28;106580;-69
2022/06/13 16:52:07;;;;;;;;;;;;;;;;;;4911852;27;136592;-69
2022/06/13 16:54:34;;;;;;;;;;;;;;;;;;4906623;27;106870;-68
2022/06/13 16:57:00;;;;;;;;;;;;;;;;;;4918108;28;135206;-69
2022/06/13 16:59:27;;;;;;;;;;;;;;;;;;4914667;28;109352;-69
2022/06/13 17:01:53;;;;;;;;;;;;;;;;;;4905051;28;108437;-67